sensor_id;sensor_type;location;lat;lon;timestamp;P1;durP1;ratioP1;P2;durP2;ratioP2
4756;SDS011;2392;52.578;13.426;2022-12-20T00:01:44;20.40;;;13.20;;
4756;SDS011;2392;52.578;13.426;2022-12-20T00:04:11;18.43;;;12.10;;
4756;SDS011;2392;52.578;13.426;2022-12-20T00:06:38;22.60;;;13.47;;
4756;SDS011;2392;52.578;13.426;2022-12-20T00:09:07;19.97;;;12.30;;
4756;SDS011;2392;52.578;13.426;2022-12-20T00:11:35;18.63;;;12.33;;
4756;SDS011;2392;52.578;13.426;2022-12-20T00:14:05;18.10;;;11.80;;
4756;SDS011;2392;52.578;13.426;2022-12-20T00:16:32;18.53;;;11.23;;
4756;SDS011;2392;52.578;13.426;2022-12-20T00:19:01;21.77;;;13.17;;
4756;SDS011;2392;52.578;13.426;2022-12-20T00:21:30;22.60;;;13.57;;
4756;SDS011;2392;52.578;13.426;2022-12-20T00:23:58;20.03;;;12.00;;
4756;SDS011;2392;52.578;13.426;2022-12-20T00:26:27;14.93;;;11.00;;
4756;SDS011;2392;52.578;13.426;2022-12-20T00:28:56;16.80;;;11.47;;
4756;SDS011;2392;52.578;13.426;2022-12-20T00:31:25;20.00;;;12.47;;
4756;SDS011;2392;52.578;13.426;2022-12-20T00:33:53;22.00;;;12.40;;
4756;SDS011;2392;52.578;13.426;2022-12-20T00:36:22;20.57;;;12.93;;
4756;SDS011;2392;52.578;13.426;2022-12-20T00:38:52;23.60;;;13.30;;
4756;SDS011;2392;52.578;13.426;2022-12-20T00:41:21;18.57;;;12.13;;
4756;SDS011;2392;52.578;13.426;2022-12-20T00:43:51;18.70;;;12.20;;
4756;SDS011;2392;52.578;13.426;2022-12-20T00:46:21;18.27;;;12.53;;
4756;SDS011;2392;52.578;13.426;2022-12-20T00:48:50;16.90;;;11.17;;
4756;SDS011;2392;52.578;13.426;2022-12-20T00:51:19;17.87;;;11.23;;
4756;SDS011;2392;52.578;13.426;2022-12-20T00:53:47;19.47;;;13.00;;
4756;SDS011;2392;52.578;13.426;2022-12-20T00:56:15;22.00;;;12.60;;
4756;SDS011;2392;52.578;13.426;2022-12-20T00:58:43;16.77;;;11.53;;
4756;SDS011;2392;52.578;13.426;2022-12-20T01:01:15;22.90;;;11.60;;
4756;SDS011;2392;52.578;13.426;2022-12-20T01:03:46;18.40;;;12.33;;
4756;SDS011;2392;52.578;13.426;2022-12-20T01:06:13;17.83;;;11.53;;
4756;SDS011;2392;52.578;13.426;2022-12-20T01:08:40;18.13;;;11.30;;
4756;SDS011;2392;52.578;13.426;2022-12-20T01:11:10;19.40;;;12.63;;
4756;SDS011;2392;52.578;13.426;2022-12-20T01:13:41;20.60;;;13.00;;
4756;SDS011;2392;52.578;13.426;2022-12-20T01:16:11;17.30;;;11.60;;
4756;SDS011;2392;52.578;13.426;2022-12-20T01:18:40;18.83;;;12.77;;
4756;SDS011;2392;52.578;13.426;2022-12-20T01:21:08;19.47;;;11.50;;
4756;SDS011;2392;52.578;13.426;2022-12-20T01:23:37;19.80;;;12.10;;
4756;SDS011;2392;52.578;13.426;2022-12-20T01:26:05;19.17;;;10.87;;
4756;SDS011;2392;52.578;13.426;2022-12-20T01:28:35;20.00;;;11.93;;
4756;SDS011;2392;52.578;13.426;2022-12-20T01:31:04;19.80;;;12.40;;
4756;SDS011;2392;52.578;13.426;2022-12-20T01:33:32;18.80;;;11.80;;
4756;SDS011;2392;52.578;13.426;2022-12-20T01:36:02;17.80;;;12.20;;
4756;SDS011;2392;52.578;13.426;2022-12-20T01:38:30;16.80;;;11.87;;
4756;SDS011;2392;52.578;13.426;2022-12-20T01:40:58;17.30;;;11.57;;
4756;SDS011;2392;52.578;13.426;2022-12-20T01:43:25;19.40;;;11.83;;
4756;SDS011;2392;52.578;13.426;2022-12-20T01:46:10;15.23;;;10.37;;
4756;SDS011;2392;52.578;13.426;2022-12-20T01:48:37;17.57;;;11.80;;
4756;SDS011;2392;52.578;13.426;2022-12-20T01:51:07;15.80;;;10.93;;
4756;SDS011;2392;52.578;13.426;2022-12-20T01:53:34;22.80;;;11.10;;
4756;SDS011;2392;52.578;13.426;2022-12-20T01:56:03;15.10;;;10.90;;
4756;SDS011;2392;52.578;13.426;2022-12-20T01:58:32;15.97;;;10.90;;
4756;SDS011;2392;52.578;13.426;2022-12-20T02:01:02;17.10;;;11.77;;
4756;SDS011;2392;52.578;13.426;2022-12-20T02:03:29;15.30;;;10.20;;
4756;SDS011;2392;52.578;13.426;2022-12-20T02:05:57;20.53;;;11.83;;
4756;SDS011;2392;52.578;13.426;2022-12-20T02:08:41;17.03;;;11.03;;
4756;SDS011;2392;52.578;13.426;2022-12-20T02:11:13;14.87;;;10.30;;
4756;SDS011;2392;52.578;13.426;2022-12-20T02:13:56;15.63;;;11.03;;
4756;SDS011;2392;52.578;13.426;2022-12-20T02:16:36;16.70;;;10.77;;
4756;SDS011;2392;52.578;13.426;2022-12-20T02:19:19;17.90;;;10.57;;
4756;SDS011;2392;52.578;13.426;2022-12-20T02:22:15;18.57;;;10.87;;
4756;SDS011;2392;52.578;13.426;2022-12-20T02:24:59;17.77;;;10.60;;
4756;SDS011;2392;52.578;13.426;2022-12-20T02:27:51;15.57;;;10.50;;
4756;SDS011;2392;52.578;13.426;2022-12-20T02:30:26;18.80;;;11.60;;
4756;SDS011;2392;52.578;13.426;2022-12-20T02:32:58;17.33;;;11.73;;
4756;SDS011;2392;52.578;13.426;2022-12-20T02:35:29;19.30;;;11.73;;
4756;SDS011;2392;52.578;13.426;2022-12-20T02:37:59;18.27;;;11.37;;
4756;SDS011;2392;52.578;13.426;2022-12-20T02:40:28;17.60;;;11.47;;
4756;SDS011;2392;52.578;13.426;2022-12-20T02:43:01;16.13;;;11.60;;
4756;SDS011;2392;52.578;13.426;2022-12-20T02:45:52;17.30;;;11.53;;
4756;SDS011;2392;52.578;13.426;2022-12-20T02:48:20;17.57;;;10.43;;
4756;SDS011;2392;52.578;13.426;2022-12-20T02:50:49;18.90;;;10.50;;
4756;SDS011;2392;52.578;13.426;2022-12-20T02:53:19;19.20;;;12.03;;
4756;SDS011;2392;52.578;13.426;2022-12-20T02:55:50;15.40;;;11.00;;
4756;SDS011;2392;52.578;13.426;2022-12-20T02:58:25;17.17;;;11.10;;
4756;SDS011;2392;52.578;13.426;2022-12-20T03:01:02;15.23;;;9.87;;
4756;SDS011;2392;52.578;13.426;2022-12-20T03:03:34;17.70;;;11.80;;
4756;SDS011;2392;52.578;13.426;2022-12-20T03:06:02;19.27;;;10.67;;
4756;SDS011;2392;52.578;13.426;2022-12-20T03:08:29;19.87;;;11.37;;
4756;SDS011;2392;52.578;13.426;2022-12-20T03:10:57;16.77;;;10.93;;
4756;SDS011;2392;52.578;13.426;2022-12-20T03:13:24;16.67;;;11.30;;
4756;SDS011;2392;52.578;13.426;2022-12-20T03:16:02;18.03;;;11.47;;
4756;SDS011;2392;52.578;13.426;2022-12-20T03:18:30;18.37;;;11.73;;
4756;SDS011;2392;52.578;13.426;2022-12-20T03:20:57;17.93;;;11.63;;
4756;SDS011;2392;52.578;13.426;2022-12-20T03:23:24;14.90;;;9.97;;
4756;SDS011;2392;52.578;13.426;2022-12-20T03:25:51;15.37;;;11.23;;
4756;SDS011;2392;52.578;13.426;2022-12-20T03:28:26;14.80;;;10.20;;
4756;SDS011;2392;52.578;13.426;2022-12-20T03:30:55;14.43;;;10.20;;
4756;SDS011;2392;52.578;13.426;2022-12-20T03:33:24;14.57;;;10.50;;
4756;SDS011;2392;52.578;13.426;2022-12-20T03:35:51;16.80;;;9.70;;
4756;SDS011;2392;52.578;13.426;2022-12-20T03:38:19;16.27;;;10.00;;
4756;SDS011;2392;52.578;13.426;2022-12-20T03:40:46;16.20;;;12.00;;
4756;SDS011;2392;52.578;13.426;2022-12-20T03:43:17;15.27;;;10.77;;
4756;SDS011;2392;52.578;13.426;2022-12-20T03:45:44;17.47;;;11.07;;
4756;SDS011;2392;52.578;13.426;2022-12-20T03:48:11;18.23;;;11.53;;
4756;SDS011;2392;52.578;13.426;2022-12-20T03:50:40;14.30;;;10.40;;
4756;SDS011;2392;52.578;13.426;2022-12-20T03:53:07;14.53;;;10.00;;
4756;SDS011;2392;52.578;13.426;2022-12-20T03:55:34;15.00;;;9.90;;
4756;SDS011;2392;52.578;13.426;2022-12-20T03:58:01;18.43;;;10.80;;
4756;SDS011;2392;52.578;13.426;2022-12-20T04:00:31;15.53;;;9.77;;
4756;SDS011;2392;52.578;13.426;2022-12-20T04:03:18;15.07;;;10.27;;
4756;SDS011;2392;52.578;13.426;2022-12-20T04:05:47;14.73;;;10.60;;
4756;SDS011;2392;52.578;13.426;2022-12-20T04:08:14;15.40;;;10.17;;
4756;SDS011;2392;52.578;13.426;2022-12-20T04:10:41;16.60;;;10.53;;
4756;SDS011;2392;52.578;13.426;2022-12-20T04:13:24;13.83;;;10.83;;
4756;SDS011;2392;52.578;13.426;2022-12-20T04:15:51;15.83;;;10.57;;
4756;SDS011;2392;52.578;13.426;2022-12-20T04:18:19;17.53;;;11.50;;
4756;SDS011;2392;52.578;13.426;2022-12-20T04:20:52;16.60;;;10.60;;
4756;SDS011;2392;52.578;13.426;2022-12-20T04:23:24;16.43;;;10.73;;
4756;SDS011;2392;52.578;13.426;2022-12-20T04:25:52;13.43;;;9.37;;
4756;SDS011;2392;52.578;13.426;2022-12-20T04:28:19;18.13;;;11.00;;
4756;SDS011;2392;52.578;13.426;2022-12-20T04:30:47;18.00;;;9.83;;
4756;SDS011;2392;52.578;13.426;2022-12-20T04:33:20;17.80;;;10.20;;
4756;SDS011;2392;52.578;13.426;2022-12-20T04:35:47;15.20;;;10.80;;
4756;SDS011;2392;52.578;13.426;2022-12-20T04:38:16;15.20;;;10.97;;
4756;SDS011;2392;52.578;13.426;2022-12-20T04:40:46;15.67;;;10.77;;
4756;SDS011;2392;52.578;13.426;2022-12-20T04:43:15;14.63;;;10.87;;
4756;SDS011;2392;52.578;13.426;2022-12-20T04:45:43;19.90;;;10.60;;
4756;SDS011;2392;52.578;13.426;2022-12-20T04:48:14;16.37;;;9.67;;
4756;SDS011;2392;52.578;13.426;2022-12-20T04:50:41;17.73;;;10.33;;
4756;SDS011;2392;52.578;13.426;2022-12-20T04:53:09;17.40;;;10.73;;
4756;SDS011;2392;52.578;13.426;2022-12-20T04:55:56;17.70;;;11.40;;
4756;SDS011;2392;52.578;13.426;2022-12-20T04:58:23;16.50;;;9.83;;
4756;SDS011;2392;52.578;13.426;2022-12-20T05:00:50;14.20;;;9.73;;
4756;SDS011;2392;52.578;13.426;2022-12-20T05:03:24;18.67;;;10.33;;
4756;SDS011;2392;52.578;13.426;2022-12-20T05:05:53;16.23;;;10.03;;
4756;SDS011;2392;52.578;13.426;2022-12-20T05:08:21;14.43;;;10.40;;
4756;SDS011;2392;52.578;13.426;2022-12-20T05:10:50;16.20;;;10.17;;
4756;SDS011;2392;52.578;13.426;2022-12-20T05:13:19;15.73;;;10.10;;
4756;SDS011;2392;52.578;13.426;2022-12-20T05:15:49;13.77;;;10.03;;
4756;SDS011;2392;52.578;13.426;2022-12-20T05:18:21;18.30;;;11.13;;
4756;SDS011;2392;52.578;13.426;2022-12-20T05:20:57;15.73;;;10.70;;
4756;SDS011;2392;52.578;13.426;2022-12-20T05:23:45;13.40;;;9.90;;
4756;SDS011;2392;52.578;13.426;2022-12-20T05:26:35;17.27;;;10.70;;
4756;SDS011;2392;52.578;13.426;2022-12-20T05:29:05;14.37;;;9.90;;
4756;SDS011;2392;52.578;13.426;2022-12-20T05:31:32;14.93;;;10.57;;
4756;SDS011;2392;52.578;13.426;2022-12-20T05:34:00;17.30;;;10.57;;
4756;SDS011;2392;52.578;13.426;2022-12-20T05:36:30;16.77;;;11.20;;
4756;SDS011;2392;52.578;13.426;2022-12-20T05:38:59;13.67;;;9.57;;
4756;SDS011;2392;52.578;13.426;2022-12-20T05:41:26;15.80;;;10.00;;
4756;SDS011;2392;52.578;13.426;2022-12-20T05:43:53;15.07;;;10.57;;
4756;SDS011;2392;52.578;13.426;2022-12-20T05:46:22;16.53;;;10.30;;
4756;SDS011;2392;52.578;13.426;2022-12-20T05:48:54;17.17;;;11.07;;
4756;SDS011;2392;52.578;13.426;2022-12-20T05:51:21;14.30;;;10.17;;
4756;SDS011;2392;52.578;13.426;2022-12-20T05:53:55;16.37;;;11.53;;
4756;SDS011;2392;52.578;13.426;2022-12-20T05:56:37;14.23;;;9.77;;
4756;SDS011;2392;52.578;13.426;2022-12-20T05:59:04;18.07;;;10.40;;
4756;SDS011;2392;52.578;13.426;2022-12-20T06:01:33;14.77;;;10.73;;
4756;SDS011;2392;52.578;13.426;2022-12-20T06:04:01;17.77;;;11.27;;
4756;SDS011;2392;52.578;13.426;2022-12-20T06:06:29;13.17;;;9.97;;
4756;SDS011;2392;52.578;13.426;2022-12-20T06:08:56;14.03;;;10.17;;
4756;SDS011;2392;52.578;13.426;2022-12-20T06:11:49;13.70;;;10.20;;
4756;SDS011;2392;52.578;13.426;2022-12-20T06:14:16;14.40;;;10.30;;
4756;SDS011;2392;52.578;13.426;2022-12-20T06:16:47;16.40;;;11.13;;
4756;SDS011;2392;52.578;13.426;2022-12-20T06:19:16;17.77;;;10.73;;
4756;SDS011;2392;52.578;13.426;2022-12-20T06:21:43;19.57;;;11.67;;
4756;SDS011;2392;52.578;13.426;2022-12-20T06:24:12;19.23;;;11.13;;
4756;SDS011;2392;52.578;13.426;2022-12-20T06:26:42;14.33;;;11.27;;
4756;SDS011;2392;52.578;13.426;2022-12-20T06:29:11;23.20;;;11.20;;
4756;SDS011;2392;52.578;13.426;2022-12-20T06:32:05;12.33;;;10.90;;
4756;SDS011;2392;52.578;13.426;2022-12-20T06:34:32;18.10;;;11.33;;
4756;SDS011;2392;52.578;13.426;2022-12-20T06:37:00;17.37;;;11.23;;
4756;SDS011;2392;52.578;13.426;2022-12-20T06:39:31;15.23;;;10.80;;
4756;SDS011;2392;52.578;13.426;2022-12-20T06:42:02;14.40;;;9.67;;
4756;SDS011;2392;52.578;13.426;2022-12-20T06:44:29;17.03;;;11.17;;
4756;SDS011;2392;52.578;13.426;2022-12-20T06:46:57;19.00;;;12.83;;
4756;SDS011;2392;52.578;13.426;2022-12-20T06:49:26;16.37;;;10.00;;
4756;SDS011;2392;52.578;13.426;2022-12-20T06:51:54;18.47;;;10.80;;
4756;SDS011;2392;52.578;13.426;2022-12-20T06:54:30;19.00;;;12.70;;
4756;SDS011;2392;52.578;13.426;2022-12-20T06:56:57;15.03;;;10.23;;
4756;SDS011;2392;52.578;13.426;2022-12-20T06:59:24;17.23;;;12.00;;
4756;SDS011;2392;52.578;13.426;2022-12-20T07:01:51;18.80;;;11.57;;
4756;SDS011;2392;52.578;13.426;2022-12-20T07:04:18;15.57;;;10.33;;
4756;SDS011;2392;52.578;13.426;2022-12-20T07:06:46;15.50;;;10.87;;
4756;SDS011;2392;52.578;13.426;2022-12-20T07:09:13;20.57;;;12.00;;
4756;SDS011;2392;52.578;13.426;2022-12-20T07:11:41;21.20;;;12.33;;
4756;SDS011;2392;52.578;13.426;2022-12-20T07:14:08;17.60;;;11.40;;
4756;SDS011;2392;52.578;13.426;2022-12-20T07:16:35;17.13;;;11.60;;
4756;SDS011;2392;52.578;13.426;2022-12-20T07:19:03;15.10;;;11.13;;
4756;SDS011;2392;52.578;13.426;2022-12-20T07:21:30;15.47;;;11.17;;
4756;SDS011;2392;52.578;13.426;2022-12-20T07:23:58;26.87;;;12.07;;
4756;SDS011;2392;52.578;13.426;2022-12-20T07:26:25;16.30;;;10.93;;
4756;SDS011;2392;52.578;13.426;2022-12-20T07:28:53;21.43;;;12.30;;
4756;SDS011;2392;52.578;13.426;2022-12-20T07:31:20;15.17;;;11.27;;
4756;SDS011;2392;52.578;13.426;2022-12-20T07:33:47;21.93;;;13.07;;
4756;SDS011;2392;52.578;13.426;2022-12-20T07:36:14;18.83;;;11.93;;
4756;SDS011;2392;52.578;13.426;2022-12-20T07:39:07;16.10;;;11.47;;
4756;SDS011;2392;52.578;13.426;2022-12-20T07:41:34;18.63;;;12.00;;
4756;SDS011;2392;52.578;13.426;2022-12-20T07:44:02;19.07;;;12.00;;
4756;SDS011;2392;52.578;13.426;2022-12-20T07:46:29;18.40;;;11.87;;
4756;SDS011;2392;52.578;13.426;2022-12-20T07:48:56;17.90;;;12.77;;
4756;SDS011;2392;52.578;13.426;2022-12-20T07:51:24;18.23;;;12.20;;
4756;SDS011;2392;52.578;13.426;2022-12-20T07:53:55;17.80;;;12.30;;
4756;SDS011;2392;52.578;13.426;2022-12-20T07:56:27;16.30;;;11.67;;
4756;SDS011;2392;52.578;13.426;2022-12-20T07:58:57;23.47;;;12.03;;
4756;SDS011;2392;52.578;13.426;2022-12-20T08:01:26;17.20;;;12.47;;
4756;SDS011;2392;52.578;13.426;2022-12-20T08:03:57;18.50;;;12.53;;
4756;SDS011;2392;52.578;13.426;2022-12-20T08:06:30;20.37;;;12.50;;
4756;SDS011;2392;52.578;13.426;2022-12-20T08:08:59;20.47;;;12.83;;
4756;SDS011;2392;52.578;13.426;2022-12-20T08:11:30;22.97;;;13.80;;
4756;SDS011;2392;52.578;13.426;2022-12-20T08:13:59;17.27;;;13.03;;
4756;SDS011;2392;52.578;13.426;2022-12-20T08:16:27;33.53;;;13.50;;
4756;SDS011;2392;52.578;13.426;2022-12-20T08:18:55;17.93;;;12.83;;
4756;SDS011;2392;52.578;13.426;2022-12-20T08:21:22;19.80;;;12.43;;
4756;SDS011;2392;52.578;13.426;2022-12-20T08:23:49;21.80;;;13.57;;
4756;SDS011;2392;52.578;13.426;2022-12-20T08:26:16;18.10;;;12.53;;
4756;SDS011;2392;52.578;13.426;2022-12-20T08:28:47;20.17;;;13.60;;
4756;SDS011;2392;52.578;13.426;2022-12-20T08:31:14;22.80;;;13.67;;
4756;SDS011;2392;52.578;13.426;2022-12-20T08:33:41;18.40;;;12.60;;
4756;SDS011;2392;52.578;13.426;2022-12-20T08:36:10;18.67;;;13.20;;
4756;SDS011;2392;52.578;13.426;2022-12-20T08:38:38;22.10;;;13.80;;
4756;SDS011;2392;52.578;13.426;2022-12-20T08:41:06;25.53;;;14.13;;
4756;SDS011;2392;52.578;13.426;2022-12-20T08:43:35;20.27;;;14.43;;
4756;SDS011;2392;52.578;13.426;2022-12-20T08:46:04;22.43;;;13.67;;
4756;SDS011;2392;52.578;13.426;2022-12-20T08:48:31;22.50;;;13.60;;
4756;SDS011;2392;52.578;13.426;2022-12-20T08:50:59;19.57;;;13.00;;
4756;SDS011;2392;52.578;13.426;2022-12-20T08:53:28;19.90;;;13.40;;
4756;SDS011;2392;52.578;13.426;2022-12-20T08:56:01;24.70;;;14.07;;
4756;SDS011;2392;52.578;13.426;2022-12-20T08:58:30;20.33;;;13.80;;
4756;SDS011;2392;52.578;13.426;2022-12-20T09:00:57;21.00;;;13.30;;
4756;SDS011;2392;52.578;13.426;2022-12-20T09:03:27;20.07;;;14.80;;
4756;SDS011;2392;52.578;13.426;2022-12-20T09:05:55;21.73;;;13.87;;
4756;SDS011;2392;52.578;13.426;2022-12-20T09:08:23;20.47;;;13.63;;
4756;SDS011;2392;52.578;13.426;2022-12-20T09:10:50;21.70;;;13.87;;
4756;SDS011;2392;52.578;13.426;2022-12-20T09:13:18;21.27;;;14.10;;
4756;SDS011;2392;52.578;13.426;2022-12-20T09:15:45;21.73;;;14.30;;
4756;SDS011;2392;52.578;13.426;2022-12-20T09:18:12;22.27;;;12.87;;
4756;SDS011;2392;52.578;13.426;2022-12-20T09:20:42;21.13;;;14.13;;
4756;SDS011;2392;52.578;13.426;2022-12-20T09:23:10;18.20;;;13.00;;
4756;SDS011;2392;52.578;13.426;2022-12-20T09:25:37;18.43;;;13.17;;
4756;SDS011;2392;52.578;13.426;2022-12-20T09:28:04;22.07;;;14.93;;
4756;SDS011;2392;52.578;13.426;2022-12-20T09:30:31;20.07;;;13.33;;
4756;SDS011;2392;52.578;13.426;2022-12-20T09:32:58;22.93;;;13.87;;
4756;SDS011;2392;52.578;13.426;2022-12-20T09:35:25;19.00;;;13.70;;
4756;SDS011;2392;52.578;13.426;2022-12-20T09:37:54;17.63;;;12.50;;
4756;SDS011;2392;52.578;13.426;2022-12-20T09:40:21;20.70;;;13.50;;
4756;SDS011;2392;52.578;13.426;2022-12-20T09:42:52;19.60;;;13.33;;
4756;SDS011;2392;52.578;13.426;2022-12-20T09:45:21;18.70;;;13.77;;
4756;SDS011;2392;52.578;13.426;2022-12-20T09:47:51;18.73;;;13.80;;
4756;SDS011;2392;52.578;13.426;2022-12-20T09:50:18;20.30;;;14.50;;
4756;SDS011;2392;52.578;13.426;2022-12-20T09:52:57;18.53;;;12.43;;
4756;SDS011;2392;52.578;13.426;2022-12-20T09:55:33;17.70;;;12.93;;
4756;SDS011;2392;52.578;13.426;2022-12-20T09:58:11;20.43;;;13.00;;
4756;SDS011;2392;52.578;13.426;2022-12-20T10:00:47;18.97;;;12.30;;
4756;SDS011;2392;52.578;13.426;2022-12-20T10:03:17;17.23;;;11.60;;
4756;SDS011;2392;52.578;13.426;2022-12-20T10:05:48;22.50;;;14.43;;
4756;SDS011;2392;52.578;13.426;2022-12-20T10:08:23;16.90;;;12.47;;
4756;SDS011;2392;52.578;13.426;2022-12-20T10:11:01;17.47;;;13.60;;
4756;SDS011;2392;52.578;13.426;2022-12-20T10:13:37;18.90;;;13.27;;
4756;SDS011;2392;52.578;13.426;2022-12-20T10:16:29;22.00;;;13.40;;
4756;SDS011;2392;52.578;13.426;2022-12-20T10:19:03;21.20;;;13.70;;
4756;SDS011;2392;52.578;13.426;2022-12-20T10:21:43;21.23;;;12.60;;
4756;SDS011;2392;52.578;13.426;2022-12-20T10:24:18;23.40;;;12.27;;
4756;SDS011;2392;52.578;13.426;2022-12-20T10:26:50;16.43;;;11.90;;
4756;SDS011;2392;52.578;13.426;2022-12-20T10:29:17;16.40;;;13.27;;
4756;SDS011;2392;52.578;13.426;2022-12-20T10:31:45;19.60;;;12.70;;
4756;SDS011;2392;52.578;13.426;2022-12-20T10:34:13;19.93;;;11.87;;
4756;SDS011;2392;52.578;13.426;2022-12-20T10:36:40;15.60;;;11.90;;
4756;SDS011;2392;52.578;13.426;2022-12-20T10:39:08;16.10;;;12.40;;
4756;SDS011;2392;52.578;13.426;2022-12-20T10:41:46;16.90;;;12.20;;
4756;SDS011;2392;52.578;13.426;2022-12-20T10:44:17;21.13;;;13.00;;
4756;SDS011;2392;52.578;13.426;2022-12-20T10:46:50;15.57;;;11.67;;
4756;SDS011;2392;52.578;13.426;2022-12-20T10:49:26;17.90;;;11.80;;
4756;SDS011;2392;52.578;13.426;2022-12-20T10:51:56;19.33;;;11.93;;
4756;SDS011;2392;52.578;13.426;2022-12-20T10:54:28;19.53;;;12.43;;
4756;SDS011;2392;52.578;13.426;2022-12-20T10:56:58;17.93;;;11.17;;
4756;SDS011;2392;52.578;13.426;2022-12-20T10:59:28;15.50;;;11.00;;
4756;SDS011;2392;52.578;13.426;2022-12-20T11:01:59;18.27;;;12.83;;
4756;SDS011;2392;52.578;13.426;2022-12-20T11:04:28;17.27;;;10.93;;
4756;SDS011;2392;52.578;13.426;2022-12-20T11:06:57;20.50;;;12.60;;
4756;SDS011;2392;52.578;13.426;2022-12-20T11:09:26;14.90;;;11.33;;
4756;SDS011;2392;52.578;13.426;2022-12-20T11:12:00;17.33;;;11.47;;
4756;SDS011;2392;52.578;13.426;2022-12-20T11:14:30;15.27;;;10.90;;
4756;SDS011;2392;52.578;13.426;2022-12-20T11:16:58;16.30;;;11.70;;
4756;SDS011;2392;52.578;13.426;2022-12-20T11:19:32;17.33;;;10.37;;
4756;SDS011;2392;52.578;13.426;2022-12-20T11:22:14;16.10;;;10.93;;
4756;SDS011;2392;52.578;13.426;2022-12-20T11:24:53;14.77;;;10.67;;
4756;SDS011;2392;52.578;13.426;2022-12-20T11:27:34;14.43;;;10.63;;
4756;SDS011;2392;52.578;13.426;2022-12-20T11:30:12;15.43;;;10.00;;
4756;SDS011;2392;52.578;13.426;2022-12-20T11:32:56;14.00;;;10.00;;
4756;SDS011;2392;52.578;13.426;2022-12-20T11:35:36;15.80;;;11.27;;
4756;SDS011;2392;52.578;13.426;2022-12-20T11:38:14;17.10;;;11.37;;
4756;SDS011;2392;52.578;13.426;2022-12-20T11:40:52;13.93;;;10.00;;
4756;SDS011;2392;52.578;13.426;2022-12-20T11:43:33;16.17;;;9.17;;
4756;SDS011;2392;52.578;13.426;2022-12-20T11:46:15;17.90;;;10.37;;
4756;SDS011;2392;52.578;13.426;2022-12-20T11:48:58;17.50;;;12.20;;
4756;SDS011;2392;52.578;13.426;2022-12-20T11:51:38;17.07;;;10.00;;
4756;SDS011;2392;52.578;13.426;2022-12-20T11:54:11;19.73;;;10.60;;
4756;SDS011;2392;52.578;13.426;2022-12-20T11:56:45;16.70;;;10.40;;
4756;SDS011;2392;52.578;13.426;2022-12-20T11:59:17;14.40;;;9.60;;
4756;SDS011;2392;52.578;13.426;2022-12-20T12:01:49;17.77;;;10.47;;
4756;SDS011;2392;52.578;13.426;2022-12-20T12:04:22;17.03;;;10.60;;
4756;SDS011;2392;52.578;13.426;2022-12-20T12:06:52;16.80;;;11.50;;
4756;SDS011;2392;52.578;13.426;2022-12-20T12:09:24;16.67;;;11.43;;
4756;SDS011;2392;52.578;13.426;2022-12-20T12:11:59;16.13;;;10.70;;
4756;SDS011;2392;52.578;13.426;2022-12-20T12:14:32;16.57;;;11.10;;
4756;SDS011;2392;52.578;13.426;2022-12-20T12:17:08;12.50;;;10.30;;
4756;SDS011;2392;52.578;13.426;2022-12-20T12:19:42;18.03;;;10.90;;
4756;SDS011;2392;52.578;13.426;2022-12-20T12:22:15;17.60;;;12.27;;
4756;SDS011;2392;52.578;13.426;2022-12-20T12:24:50;15.83;;;10.67;;
4756;SDS011;2392;52.578;13.426;2022-12-20T12:27:22;14.20;;;10.40;;
4756;SDS011;2392;52.578;13.426;2022-12-20T12:29:51;14.43;;;11.10;;
4756;SDS011;2392;52.578;13.426;2022-12-20T12:32:22;16.03;;;11.07;;
4756;SDS011;2392;52.578;13.426;2022-12-20T12:35:04;14.53;;;10.73;;
4756;SDS011;2392;52.578;13.426;2022-12-20T12:38:03;19.00;;;9.93;;
4756;SDS011;2392;52.578;13.426;2022-12-20T12:40:46;15.80;;;9.77;;
4756;SDS011;2392;52.578;13.426;2022-12-20T12:43:39;14.80;;;10.00;;
4756;SDS011;2392;52.578;13.426;2022-12-20T12:46:14;15.30;;;10.60;;
4756;SDS011;2392;52.578;13.426;2022-12-20T12:48:45;14.40;;;11.07;;
4756;SDS011;2392;52.578;13.426;2022-12-20T12:51:20;13.07;;;10.13;;
4756;SDS011;2392;52.578;13.426;2022-12-20T12:53:52;13.70;;;10.13;;
4756;SDS011;2392;52.578;13.426;2022-12-20T12:56:37;13.53;;;9.73;;
4756;SDS011;2392;52.578;13.426;2022-12-20T13:05:31;15.10;;;10.90;;
4756;SDS011;2392;52.578;13.426;2022-12-20T13:07:59;19.33;;;10.97;;
4756;SDS011;2392;52.578;13.426;2022-12-20T13:13:30;13.03;;;9.90;;
4756;SDS011;2392;52.578;13.426;2022-12-20T13:16:05;17.37;;;10.40;;
4756;SDS011;2392;52.578;13.426;2022-12-20T13:21:38;14.93;;;9.97;;
4756;SDS011;2392;52.578;13.426;2022-12-20T13:27:26;15.23;;;10.97;;
4756;SDS011;2392;52.578;13.426;2022-12-20T13:29:57;17.43;;;10.63;;
4756;SDS011;2392;52.578;13.426;2022-12-20T13:35:58;20.13;;;12.53;;
4756;SDS011;2392;52.578;13.426;2022-12-20T13:38:36;13.03;;;10.17;;
4756;SDS011;2392;52.578;13.426;2022-12-20T13:41:18;16.90;;;11.57;;
4756;SDS011;2392;52.578;13.426;2022-12-20T13:44:00;13.37;;;9.37;;
4756;SDS011;2392;52.578;13.426;2022-12-20T13:46:39;15.03;;;11.10;;
4756;SDS011;2392;52.578;13.426;2022-12-20T13:49:11;17.63;;;11.10;;
4756;SDS011;2392;52.578;13.426;2022-12-20T13:51:48;14.90;;;10.50;;
4756;SDS011;2392;52.578;13.426;2022-12-20T13:54:31;14.87;;;10.30;;
4756;SDS011;2392;52.578;13.426;2022-12-20T13:56:58;14.40;;;10.47;;
4756;SDS011;2392;52.578;13.426;2022-12-20T13:59:26;16.33;;;10.70;;
4756;SDS011;2392;52.578;13.426;2022-12-20T14:01:58;13.77;;;10.20;;
4756;SDS011;2392;52.578;13.426;2022-12-20T14:04:27;18.03;;;10.30;;
4756;SDS011;2392;52.578;13.426;2022-12-20T14:07:08;17.80;;;11.67;;
4756;SDS011;2392;52.578;13.426;2022-12-20T14:09:43;13.90;;;10.37;;
4756;SDS011;2392;52.578;13.426;2022-12-20T14:12:11;16.67;;;11.80;;
4756;SDS011;2392;52.578;13.426;2022-12-20T14:14:42;16.30;;;10.40;;
4756;SDS011;2392;52.578;13.426;2022-12-20T14:17:13;16.53;;;12.03;;
4756;SDS011;2392;52.578;13.426;2022-12-20T14:19:41;16.73;;;10.70;;
4756;SDS011;2392;52.578;13.426;2022-12-20T14:22:10;21.13;;;11.10;;
4756;SDS011;2392;52.578;13.426;2022-12-20T14:24:38;14.20;;;10.40;;
4756;SDS011;2392;52.578;13.426;2022-12-20T14:27:07;16.37;;;10.43;;
4756;SDS011;2392;52.578;13.426;2022-12-20T14:29:38;17.80;;;10.60;;
4756;SDS011;2392;52.578;13.426;2022-12-20T14:32:05;17.53;;;11.23;;
4756;SDS011;2392;52.578;13.426;2022-12-20T14:34:43;15.60;;;11.57;;
4756;SDS011;2392;52.578;13.426;2022-12-20T14:37:27;16.03;;;11.10;;
4756;SDS011;2392;52.578;13.426;2022-12-20T14:40:00;17.07;;;11.83;;
4756;SDS011;2392;52.578;13.426;2022-12-20T14:42:31;19.20;;;12.20;;
4756;SDS011;2392;52.578;13.426;2022-12-20T14:45:05;15.93;;;10.50;;
4756;SDS011;2392;52.578;13.426;2022-12-20T14:47:49;15.30;;;10.63;;
4756;SDS011;2392;52.578;13.426;2022-12-20T14:50:22;14.67;;;10.90;;
4756;SDS011;2392;52.578;13.426;2022-12-20T14:52:54;17.10;;;11.37;;
4756;SDS011;2392;52.578;13.426;2022-12-20T14:55:23;15.67;;;12.00;;
4756;SDS011;2392;52.578;13.426;2022-12-20T14:57:53;19.53;;;12.33;;
4756;SDS011;2392;52.578;13.426;2022-12-20T15:00:22;15.30;;;11.70;;
4756;SDS011;2392;52.578;13.426;2022-12-20T15:02:57;17.00;;;11.87;;
4756;SDS011;2392;52.578;13.426;2022-12-20T15:05:43;17.67;;;11.57;;
4756;SDS011;2392;52.578;13.426;2022-12-20T15:08:14;20.50;;;12.03;;
4756;SDS011;2392;52.578;13.426;2022-12-20T15:10:52;14.73;;;10.90;;
4756;SDS011;2392;52.578;13.426;2022-12-20T15:13:23;20.17;;;12.00;;
4756;SDS011;2392;52.578;13.426;2022-12-20T15:15:53;19.70;;;12.60;;
4756;SDS011;2392;52.578;13.426;2022-12-20T15:18:20;19.20;;;11.97;;
4756;SDS011;2392;52.578;13.426;2022-12-20T15:20:48;19.67;;;13.30;;